Time;durP1;ratioP1;P1;durP2;ratioP2;P2;SDS_P1;SDS_P2;PMS_P1;PMS_P2;Temp;Humidity;BMP_temperature;BMP_pressure;BME280_temperature;BME280_humidity;BME280_pressure;Samples;Min_cycle;Max_cycle;Signal;HPM_P1;HPM_P2
2022/12/19 00:05:06;;;;;;;78.30;26.10;;;;;;;-4.59;88.43;102482.25;660619;1308;139243;-83
2022/12/19 00:20:09;;;;;;;74.20;23.70;;;;;;;-4.86;88.84;102473.94;660628;1312;139240;-83
2022/12/19 00:35:14;;;;;;;82.10;29.00;;;;;;;-4.88;88.79;102469.65;660636;1313;139266;-83
2022/12/19 00:50:18;;;;;;;75.70;27.30;;;;;;;-4.69;88.56;102463.02;660423;1312;139549;-83
2022/12/19 01:05:21;;;;;;;77.70;28.00;;;;;;;-4.76;87.59;102460.90;660705;1312;139723;-83
2022/12/19 01:20:25;;;;;;;87.30;30.60;;;;;;;-5.06;87.05;102456.48;660371;1309;139503;-83
2022/12/19 01:35:32;;;;;;;73.70;27.30;;;;;;;-5.22;87.37;102434.45;660470;1312;139672;-83
2022/12/19 01:50:37;;;;;;;65.60;24.00;;;;;;;-5.12;87.44;102411.17;660475;1312;140075;-83
2022/12/19 02:05:44;;;;;;;71.90;25.80;;;;;;;-5.02;86.95;102388.42;660639;1312;157732;-83
2022/12/19 02:21:19;;;;;;;66.10;22.30;;;;;;;-5.02;86.57;102377.84;660559;1299;139832;-83
2022/12/19 02:36:36;;;;;;;;;;;;;;;-5.01;86.40;102360.95;660797;1312;139669;-83
2022/12/19 02:51:46;;;;;;;66.10;23.10;;;;;;;-5.12;86.07;102334.56;660675;1298;125276;-83
2022/12/19 03:06:59;;;;;;;76.30;25.50;;;;;;;-5.18;85.83;102315.38;662499;1303;139898;-83
2022/12/19 03:22:05;;;;;;;66.90;22.40;;;;;;;-5.33;85.99;102311.13;660867;1307;140212;-84
2022/12/19 03:37:16;;;;;;;62.50;21.90;;;;;;;-5.38;85.62;102309.04;660820;1310;139625;-84
2022/12/19 03:52:30;;;;;;;59.20;20.40;;;;;;;-5.32;84.99;102319.35;660977;1310;139763;-83
2022/12/19 04:07:35;;;;;;;61.00;25.00;;;;;;;-5.32;84.70;102299.73;660892;1310;140560;-83
2022/12/19 04:22:41;;;;;;;75.30;28.10;;;;;;;-5.22;84.20;102283.95;660876;1310;139511;-83
2022/12/19 04:37:45;;;;;;;57.40;18.90;;;;;;;-5.21;83.85;102272.70;660680;1310;139709;-83
2022/12/19 04:52:48;;;;;;;77.90;32.60;;;;;;;-5.41;83.30;102263.46;660952;1310;141053;-83
2022/12/19 05:07:57;;;;;;;50.70;19.20;;;;;;;-5.65;83.11;102254.88;660751;1310;139603;-84
2022/12/19 05:23:00;;;;;;;54.60;20.40;;;;;;;-5.70;83.15;102248.49;660737;1308;139529;-83
2022/12/19 05:38:09;;;;;;;79.10;34.90;;;;;;;-5.77;82.96;102229.85;660567;1299;140785;-83
2022/12/19 05:53:13;;;;;;;66.90;25.70;;;;;;;-5.92;82.93;102217.08;660880;1310;140120;-83
2022/12/19 06:08:17;;;;;;;;;;;;;;;-5.94;83.38;102211.61;660618;1310;139781;-83
2022/12/19 06:23:20;;;;;;;72.80;28.10;;;;;;;-5.95;83.93;102209.20;660884;1310;125727;-83
2022/12/19 06:38:23;;;;;;;66.30;24.90;;;;;;;-5.96;84.03;102193.35;660449;1310;139768;-83
2022/12/19 06:53:27;;;;;;;60.70;23.70;;;;;;;-5.96;83.98;102188.75;660931;1302;139515;-84
2022/12/19 07:08:30;;;;;;;229.00;72.60;;;;;;;-5.91;83.93;102172.44;660752;1310;140218;-84
2022/12/19 07:23:34;;;;;;;72.00;26.50;;;;;;;-5.84;84.41;102158.71;660872;1301;140669;-84
2022/12/19 07:38:38;;;;;;;84.60;32.40;;;;;;;-5.59;84.01;102156.55;661036;1306;139529;-84
2022/12/19 07:53:41;;;;;;;62.30;24.00;;;;;;;-5.39;83.10;102161.66;661022;1294;140087;-84
2022/12/19 08:08:44;;;;;;;110.60;39.80;;;;;;;-5.38;82.10;102144.95;660584;1295;139765;-84
2022/12/19 08:23:48;;;;;;;68.00;29.50;;;;;;;-4.99;81.46;102114.16;660928;1288;139846;-84
2022/12/19 08:38:51;;;;;;;80.50;32.10;;;;;;;-4.62;79.76;102089.76;660159;1307;140143;-85
2022/12/19 08:53:55;;;;;;;98.90;37.70;;;;;;;-4.59;77.54;102072.36;660721;1310;140100;-85
2022/12/19 09:08:58;;;;;;;68.90;25.10;;;;;;;-4.15;76.77;102049.91;660718;1310;139233;-84
2022/12/19 09:24:03;;;;;;;83.70;32.70;;;;;;;-3.76;74.96;102025.83;661114;1303;139306;-85
2022/12/19 09:39:11;;;;;;;153.90;48.10;;;;;;;-3.13;72.51;102003.95;660890;1298;139555;-86
2022/12/19 09:54:25;;;;;;;75.10;35.00;;;;;;;-2.55;70.18;101977.30;660916;1307;140500;-84
2022/12/19 10:09:33;;;;;;;56.90;23.00;;;;;;;-1.97;70.02;101953.02;660477;1310;139316;-84
2022/12/19 10:25:17;;;;;;;115.40;40.40;;;;;;;-1.56;66.93;101900.98;660867;1298;139380;-85
2022/12/19 10:40:33;;;;;;;61.40;24.40;;;;;;;-1.14;66.03;101867.31;661024;1310;139863;-86
2022/12/19 10:55:37;;;;;;;149.20;56.40;;;;;;;-0.52;65.25;101834.56;660466;1311;139332;-85
2022/12/19 11:10:47;;;;;;;57.50;25.50;;;;;;;0.01;63.31;101798.20;661068;1310;139959;-85
2022/12/19 11:26:27;;;;;;;80.00;28.60;;;;;;;-0.09;62.90;101767.61;660814;1311;139524;-85
2022/12/19 11:41:59;;;;;;;69.00;29.10;;;;;;;0.37;61.54;101735.16;660842;1306;139200;-85
2022/12/19 11:57:03;;;;;;;45.40;20.10;;;;;;;0.74;60.79;101721.22;660733;1296;139156;-85
2022/12/19 12:12:17;;;;;;;71.60;38.10;;;;;;;1.26;59.29;101706.48;660749;1312;139264;-85
2022/12/19 12:28:06;;;;;;;35.70;17.30;;;;;;;1.86;57.98;101695.37;660619;1310;138969;-85
2022/12/19 12:43:44;;;;;;;45.00;19.60;;;;;;;1.88;56.39;101672.85;660740;1311;138805;-85
2022/12/19 12:58:47;;;;;;;145.60;45.70;;;;;;;1.71;55.71;101644.19;660890;1310;139073;-84
2022/12/19 13:13:56;;;;;;;106.40;38.20;;;;;;;0.97;56.02;101605.89;660933;1311;138984;-84
2022/12/19 13:29:25;;;;;;;53.70;23.20;;;;;;;-0.24;57.77;101579.76;661042;1312;138686;-85
2022/12/19 13:44:30;;;;;;;53.20;20.60;;;;;;;-0.85;59.00;101562.14;660715;1312;139246;-84
2022/12/19 13:59:37;;;;;;;60.10;25.20;;;;;;;-1.24;59.93;101551.05;660861;1312;138983;-83
2022/12/19 14:30:20;;;;;;;180.90;47.80;;;;;;;-1.50;61.59;101520.27;662475;1305;139043;-84
2022/12/19 14:45:39;;;;;;;61.80;25.50;;;;;;;-1.57;62.67;101503.08;660948;1307;139206;-83
2022/12/19 15:01:05;;;;;;;70.90;28.60;;;;;;;-1.48;63.13;101485.23;661008;1307;139205;-84
2022/12/19 15:16:28;;;;;;;81.90;32.40;;;;;;;-1.56;64.13;101452.26;661003;1310;139649;-83
2022/12/19 15:31:40;;;;;;;55.10;24.00;;;;;;;-1.38;64.60;101435.44;660756;1312;139300;-83
2022/12/19 15:46:46;;;;;;;65.30;24.40;;;;;;;-1.33;65.28;101418.86;661120;1312;139522;-83
2022/12/19 16:01:52;;;;;;;59.40;25.20;;;;;;;-1.10;65.23;101407.58;660722;1305;140071;-83
2022/12/19 16:16:56;;;;;;;53.80;20.40;;;;;;;-1.13;65.61;101372.45;661052;1307;139225;-84
2022/12/19 16:32:00;;;;;;;58.70;22.50;;;;;;;-1.20;66.06;101351.30;660663;1312;139448;-83
2022/12/19 16:47:09;;;;;;;67.80;27.60;;;;;;;-1.17;66.21;101324.81;660779;1312;139359;-83
2022/12/19 17:02:22;;;;;;;85.50;33.60;;;;;;;-1.21;66.72;101312.86;660593;1312;139615;-83
2022/12/19 17:17:26;;;;;;;73.70;27.60;;;;;;;-1.12;67.48;101302.02;660945;1306;139292;-83
2022/12/19 17:32:29;;;;;;;65.80;27.50;;;;;;;-0.97;68.30;101294.98;662160;1303;139151;-83
2022/12/19 17:47:33;;;;;;;77.90;33.40;;;;;;;-0.93;68.69;101275.81;660812;1312;139747;-83
2022/12/19 18:02:36;;;;;;;101.40;36.50;;;;;;;-0.78;69.36;101271.14;660687;1304;139202;-83
2022/12/19 18:17:41;;;;;;;90.20;36.70;;;;;;;-0.69;69.84;101241.55;660535;1305;139674;-83
2022/12/19 18:33:07;;;;;;;59.70;22.70;;;;;;;-0.57;70.09;101221.82;660483;1311;139844;-83
2022/12/19 18:48:22;;;;;;;73.40;29.30;;;;;;;-0.53;70.75;101180.13;660723;1312;139297;-83
2022/12/19 19:03:30;;;;;;;54.60;24.60;;;;;;;-0.45;71.17;101154.83;660626;1299;139868;-84
2022/12/19 19:18:37;;;;;;;74.00;27.60;;;;;;;-0.45;72.09;101125.94;661210;1297;139302;-83
2022/12/19 19:33:46;;;;;;;82.70;30.60;;;;;;;-0.42;72.86;101110.40;660817;1312;139748;-83
2022/12/19 19:48:49;;;;;;;88.80;36.50;;;;;;;-0.32;73.62;101102.88;660882;1312;139165;-83
2022/12/19 20:03:53;;;;;;;81.70;34.00;;;;;;;-0.30;77.13;101071.00;661048;1304;139605;-83
2022/12/19 20:18:57;;;;;;;101.40;37.70;;;;;;;-0.31;82.94;101033.21;660543;1304;139519;-83
2022/12/19 20:34:00;;;;;;;82.70;32.00;;;;;;;-0.32;86.59;100994.05;660786;1312;139359;-83
2022/12/19 20:49:04;;;;;;;70.70;33.50;;;;;;;-0.35;89.23;100980.06;660680;1311;139589;-83
2022/12/19 21:04:07;;;;;;;90.40;36.00;;;;;;;-0.26;90.30;100968.42;660902;1304;139261;-83
2022/12/19 21:19:11;;;;;;;84.20;35.10;;;;;;;-0.23;92.97;100965.41;660565;1312;139370;-83
2022/12/19 21:34:14;;;;;;;81.60;35.50;;;;;;;-0.11;95.08;100931.83;660891;1306;139292;-83
2022/12/19 21:49:17;;;;;;;86.70;32.60;;;;;;;0.06;97.64;100915.44;660693;1312;139332;-83
2022/12/19 22:04:26;;;;;;;79.70;32.80;;;;;;;0.33;98.43;100904.02;660877;1311;139061;-84
2022/12/19 22:19:29;;;;;;;82.20;34.50;;;;;;;0.60;99.94;100884.81;660626;1311;139369;-82
2022/12/19 22:34:33;;;;;;;79.20;35.20;;;;;;;0.88;100.00;100857.60;660912;1298;139176;-84
2022/12/19 22:49:36;;;;;;;70.40;28.80;;;;;;;1.12;100.00;100846.65;660848;1306;139029;-84
2022/12/19 23:04:40;;;;;;;68.70;30.40;;;;;;;1.47;100.00;100824.40;660901;1311;139013;-84
2022/12/19 23:19:43;;;;;;;58.30;26.20;;;;;;;1.74;100.00;100802.08;660820;1312;139185;-83
2022/12/19 23:34:46;;;;;;;53.50;23.70;;;;;;;2.07;100.00;100786.86;660961;1311;139012;-82
2022/12/19 23:49:50;;;;;;;47.50;23.40;;;;;;;2.24;100.00;100767.07;660825;1311;139096;-82
